Time;durP1;ratioP1;P1;durP2;ratioP2;P2;SDS_P1;SDS_P2;PMS_P1;PMS_P2;Temp;Humidity;BMP_temperature;BMP_pressure;BME280_temperature;BME280_humidity;BME280_pressure;Samples;Min_cycle;Max_cycle;Signal;HPM_P1;HPM_P2
2022/08/15 00:00:54;;;;;;;14.10;11.05;;;20.90;99.90;;;;;;5004102;28;90232;-35
2022/08/15 00:03:28;;;;;;;12.65;11.52;;;20.90;99.90;;;;;;5004615;28;89743;-34
2022/08/15 00:05:56;;;;;;;12.18;10.95;;;20.80;99.90;;;;;;5004099;28;89631;-32
2022/08/15 00:08:22;;;;;;;14.70;12.27;;;20.80;99.90;;;;;;5004080;28;89749;-37
2022/08/15 00:10:48;;;;;;;12.65;11.45;;;20.70;99.90;;;;;;5004547;28;89186;-36
2022/08/15 00:13:28;;;;;;;13.32;11.93;;;20.60;99.90;;;;;;5002286;28;89915;-35
2022/08/15 00:15:55;;;;;;;11.75;10.55;;;20.50;99.90;;;;;;5003661;28;90532;-35
2022/08/15 00:18:24;;;;;;;12.50;11.02;;;20.50;99.90;;;;;;5004091;28;91269;-33
2022/08/15 00:20:51;;;;;;;12.32;11.07;;;20.40;99.90;;;;;;5003829;28;89429;-33
2022/08/15 00:23:19;;;;;;;12.23;11.07;;;20.40;99.90;;;;;;5040294;22;92351;-33
2022/08/15 00:25:47;;;;;;;13.63;12.40;;;20.50;99.90;;;;;;5000904;28;91412;-32
2022/08/15 00:28:13;;;;;;;12.85;11.57;;;20.50;99.90;;;;;;5000630;28;92723;-35
2022/08/15 00:30:40;;;;;;;14.38;11.30;;;20.60;99.90;;;;;;5000742;28;90113;-34
2022/08/15 00:33:06;;;;;;;12.73;11.43;;;20.60;99.90;;;;;;5000628;28;89934;-32
2022/08/15 00:35:36;;;;;;;13.00;11.70;;;20.60;99.90;;;;;;4999835;28;89434;-33
2022/08/15 00:38:08;;;;;;;12.50;11.20;;;20.70;99.90;;;;;;5000324;28;91216;-36
2022/08/15 00:41:39;;;;;;;12.23;11.10;;;20.70;99.90;;;;;;5001105;28;88013;-34
2022/08/15 00:43:23;;;;;;;11.48;10.38;;;20.70;99.90;;;;;;5000104;28;92389;-33
2022/08/15 00:45:50;;;;;;;11.10;10.07;;;20.70;99.90;;;;;;4999674;28;89747;-32
2022/08/15 00:51:02;;;;;;;11.65;10.55;;;20.70;99.90;;;;;;4987474;28;89995;-34
2022/08/15 00:53:28;;;;;;;18.65;11.70;;;20.70;99.90;;;;;;5000538;28;90312;-35
2022/08/15 00:55:56;;;;;;;12.30;11.10;;;20.70;99.90;;;;;;4999672;28;89519;-36
2022/08/15 00:58:22;;;;;;;12.02;10.80;;;20.60;99.90;;;;;;5000253;28;90298;-32
2022/08/15 01:00:48;;;;;;;13.20;11.93;;;20.60;99.90;;;;;;5000374;28;88968;-36
2022/08/15 01:03:20;;;;;;;13.88;12.05;;;20.50;99.90;;;;;;4999744;28;90143;-34
2022/08/15 01:05:50;;;;;;;14.45;13.05;;;20.40;99.90;;;;;;4999711;28;91700;-33
2022/08/15 01:08:17;;;;;;;12.93;11.70;;;20.30;99.90;;;;;;4999889;28;89679;-32
2022/08/15 01:10:43;;;;;;;12.23;10.93;;;20.20;99.90;;;;;;4999531;28;88750;-35
2022/08/15 01:13:10;;;;;;;12.07;10.70;;;20.00;99.90;;;;;;5000613;28;90255;-31
2022/08/15 01:15:36;;;;;;;14.32;12.80;;;19.90;99.90;;;;;;4999752;28;90370;-31
2022/08/15 01:18:03;;;;;;;18.73;12.27;;;19.80;99.90;;;;;;4999681;28;90494;-31
2022/08/15 01:20:32;;;;;;;16.10;11.50;;;19.80;99.90;;;;;;4999736;28;89243;-33
2022/08/15 01:23:29;;;;;;;17.35;12.43;;;19.70;99.90;;;;;;4999612;28;90173;-32
2022/08/15 01:25:59;;;;;;;13.67;12.27;;;19.60;99.90;;;;;;5000323;28;90225;-32
2022/08/15 01:28:34;;;;;;;12.82;11.35;;;19.60;99.90;;;;;;5000151;28;89959;-34
2022/08/15 01:31:15;;;;;;;14.63;13.20;;;19.70;99.90;;;;;;4999731;28;90183;-35
2022/08/15 01:33:51;;;;;;;14.63;13.18;;;19.70;99.90;;;;;;4999996;28;90211;-34
2022/08/15 01:36:19;;;;;;;13.05;11.70;;;19.80;99.90;;;;;;4998900;28;89699;-32
2022/08/15 01:39:07;;;;;;;12.90;11.65;;;19.80;99.90;;;;;;5000068;28;90248;-33
2022/08/15 01:41:45;;;;;;;;;;;19.90;99.90;;;;;;4999381;28;90112;-35
2022/08/15 01:44:18;;;;;;;15.02;12.82;;;19.90;99.90;;;;;;5002019;28;90012;-33
2022/08/15 01:46:53;;;;;;;13.02;11.73;;;19.90;99.90;;;;;;4998784;28;90005;-32
2022/08/15 01:49:29;;;;;;;14.75;12.60;;;19.90;99.90;;;;;;4999496;28;89548;-31
2022/08/15 01:51:58;;;;;;;14.23;12.82;;;19.90;99.90;;;;;;5000131;28;89326;-33
2022/08/15 01:54:28;;;;;;;14.32;12.63;;;19.90;99.90;;;;;;4998952;28;90320;-34
2022/08/15 01:56:53;;;;;;;20.20;13.57;;;20.00;99.90;;;;;;4999906;28;89253;-30
2022/08/15 01:59:23;;;;;;;14.40;12.23;;;20.00;99.90;;;;;;4999535;28;89300;-32
2022/08/15 02:01:55;;;;;;;13.40;11.95;;;20.10;99.90;;;;;;4999991;28;89115;-33
2022/08/15 02:04:28;;;;;;;14.07;11.88;;;20.10;99.90;;;;;;4998407;28;90927;-31
2022/08/15 02:06:56;;;;;;;15.23;12.77;;;20.20;99.90;;;;;;4998992;28;90560;-34
2022/08/15 02:09:22;;;;;;;;;;;20.20;99.90;;;;;;4999973;28;90570;-31
2022/08/15 02:11:50;;;;;;;13.90;12.55;;;20.20;99.90;;;;;;5000971;28;89155;-35
2022/08/15 02:14:15;;;;;;;12.85;11.52;;;20.20;99.90;;;;;;4999547;28;90137;-32
2022/08/15 02:16:42;;;;;;;19.38;12.02;;;20.20;99.90;;;;;;4998531;28;90603;-31
2022/08/15 02:19:10;;;;;;;14.63;12.15;;;20.30;99.90;;;;;;4999064;28;89560;-31
2022/08/15 02:21:37;;;;;;;;;;;20.30;99.90;;;;;;4999965;28;89867;-32
2022/08/15 02:24:06;;;;;;;15.60;13.15;;;20.30;99.90;;;;;;5001636;28;90237;-31
2022/08/15 02:26:31;;;;;;;14.77;11.82;;;20.30;99.90;;;;;;4999325;28;89302;-31
2022/08/15 02:28:57;;;;;;;15.05;12.75;;;20.30;99.90;;;;;;4998747;28;89608;-31
2022/08/15 02:31:26;;;;;;;19.27;12.55;;;20.30;99.90;;;;;;4998770;28;89564;-30
2022/08/15 02:33:58;;;;;;;16.23;11.50;;;20.30;99.90;;;;;;4999344;28;89109;-31
2022/08/15 02:36:26;;;;;;;15.20;13.70;;;20.30;99.90;;;;;;4996175;28;89770;-32
2022/08/15 02:38:52;;;;;;;14.60;13.10;;;20.20;99.90;;;;;;4999168;28;89756;-31
2022/08/15 02:41:28;;;;;;;14.45;13.05;;;20.10;99.90;;;;;;4998380;28;88062;-32
2022/08/15 02:43:53;;;;;;;19.10;14.48;;;20.00;99.90;;;;;;4998861;28;90566;-30
2022/08/15 02:46:19;;;;;;;18.00;14.07;;;19.90;99.90;;;;;;4998963;28;90077;-31
2022/08/15 02:48:48;;;;;;;13.65;12.25;;;20.00;99.90;;;;;;4997947;28;89908;-31
2022/08/15 02:51:16;;;;;;;14.27;12.88;;;19.90;99.90;;;;;;4998840;28;88898;-32
2022/08/15 02:53:46;;;;;;;13.52;12.13;;;19.90;99.90;;;;;;4999406;28;90820;-32
2022/08/15 02:56:13;;;;;;;14.32;12.68;;;19.80;99.90;;;;;;4998029;28;90376;-34
2022/08/15 02:58:38;;;;;;;14.02;12.48;;;19.80;99.90;;;;;;4999367;28;93017;-31
2022/08/15 03:01:09;;;;;;;14.45;12.50;;;19.80;99.90;;;;;;4998495;28;88430;-31
2022/08/15 03:03:40;;;;;;;13.57;12.27;;;19.70;99.90;;;;;;4984477;28;90787;-32
2022/08/15 03:06:09;;;;;;;15.98;14.23;;;19.70;99.90;;;;;;4998059;28;89766;-33
2022/08/15 03:08:37;;;;;;;16.70;13.88;;;19.70;99.90;;;;;;4998593;28;89285;-33
2022/08/15 03:11:05;;;;;;;15.02;13.52;;;19.60;99.90;;;;;;4998184;28;88369;-34
2022/08/15 03:13:31;;;;;;;14.65;13.23;;;19.50;99.90;;;;;;4998310;28;88687;-32
2022/08/15 03:15:57;;;;;;;16.20;14.60;;;19.50;99.90;;;;;;4998509;28;89942;-32
2022/08/15 03:18:25;;;;;;;15.40;13.23;;;19.40;99.90;;;;;;4997878;28;90100;-31
2022/08/15 03:20:51;;;;;;;12.88;11.52;;;19.40;99.90;;;;;;4998166;28;89207;-32
2022/08/15 03:23:21;;;;;;;12.80;11.65;;;19.40;99.90;;;;;;4997934;28;90160;-35
2022/08/15 03:25:50;;;;;;;14.57;13.05;;;19.40;99.90;;;;;;4998423;28;90114;-36
2022/08/15 03:28:17;;;;;;;14.18;12.48;;;19.50;99.90;;;;;;4998811;28;89814;-31
2022/08/15 03:30:42;;;;;;;13.35;12.05;;;19.40;99.90;;;;;;4998893;28;90016;-32
2022/08/15 03:33:09;;;;;;;12.30;11.05;;;19.50;99.90;;;;;;4998240;28;90089;-34
2022/08/15 03:35:43;;;;;;;11.50;10.32;;;19.50;99.90;;;;;;4997806;28;89975;-31
2022/08/15 03:38:09;;;;;;;11.77;10.57;;;19.50;99.90;;;;;;4998464;28;89489;-34
2022/08/15 03:40:37;;;;;;;11.30;10.18;;;19.40;99.90;;;;;;4998033;28;88285;-34
2022/08/15 03:43:12;;;;;;;11.97;10.70;;;19.40;99.90;;;;;;4999185;28;90313;-32
2022/08/15 03:45:39;;;;;;;14.30;12.80;;;19.30;99.90;;;;;;4997314;28;90526;-31
2022/08/15 03:48:06;;;;;;;14.15;12.38;;;19.30;99.90;;;;;;4998341;28;90650;-33
2022/08/15 03:50:32;;;;;;;13.93;12.43;;;19.30;99.90;;;;;;4998237;28;89559;-31
2022/08/15 03:53:02;;;;;;;15.27;13.75;;;19.30;99.90;;;;;;4997939;28;90817;-32
2022/08/15 03:55:31;;;;;;;14.57;13.13;;;19.20;99.90;;;;;;4997842;28;89565;-31
2022/08/15 03:57:57;;;;;;;16.85;12.93;;;19.20;99.90;;;;;;4997852;28;89989;-33
2022/08/15 04:00:26;;;;;;;14.75;13.05;;;19.20;99.90;;;;;;4998315;28;88039;-32
2022/08/15 04:02:53;;;;;;;13.77;12.50;;;19.00;99.90;;;;;;5001415;28;90547;-32
2022/08/15 04:05:20;;;;;;;16.45;14.77;;;18.80;99.90;;;;;;5001307;28;90127;-31
2022/08/15 04:07:46;;;;;;;14.50;12.95;;;18.70;99.90;;;;;;5001203;28;89601;-32
2022/08/15 04:10:16;;;;;;;16.13;14.23;;;18.60;99.90;;;;;;5000995;28;88587;-34
2022/08/15 04:12:43;;;;;;;15.50;13.95;;;18.50;99.90;;;;;;5001733;28;89010;-36
2022/08/15 04:15:12;;;;;;;20.17;14.57;;;18.40;99.90;;;;;;5001528;28;90482;-31
2022/08/15 04:17:38;;;;;;;16.38;13.07;;;18.40;99.90;;;;;;5000995;28;90326;-33
2022/08/15 04:20:05;;;;;;;13.57;12.05;;;18.40;99.90;;;;;;5000497;28;87486;-30
2022/08/15 04:22:36;;;;;;;16.02;14.32;;;18.40;99.90;;;;;;5001677;28;90138;-31
2022/08/15 04:25:12;;;;;;;15.10;13.57;;;18.40;99.90;;;;;;4999181;28;89704;-32
2022/08/15 04:27:38;;;;;;;16.40;13.10;;;18.50;99.90;;;;;;5001351;28;89195;-34
2022/08/15 04:30:06;;;;;;;14.55;13.15;;;18.50;99.90;;;;;;5000885;28;89415;-31
2022/08/15 04:32:32;;;;;;;14.80;13.23;;;18.60;99.90;;;;;;5000135;28;90422;-31
2022/08/15 04:34:59;;;;;;;15.45;13.68;;;18.60;99.90;;;;;;5000518;28;91164;-33
2022/08/15 04:37:25;;;;;;;15.25;13.70;;;18.70;99.90;;;;;;4999286;28;90511;-33
2022/08/15 04:39:52;;;;;;;15.43;13.85;;;18.80;99.90;;;;;;5000921;28;88308;-31
2022/08/15 04:42:21;;;;;;;15.63;13.88;;;18.80;99.90;;;;;;5000543;28;91416;-31
2022/08/15 04:44:48;;;;;;;13.93;12.57;;;18.90;99.90;;;;;;5000806;28;89638;-32
2022/08/15 04:47:15;;;;;;;14.57;13.07;;;19.00;99.90;;;;;;5000255;28;89910;-33
2022/08/15 04:49:42;;;;;;;14.85;13.35;;;19.00;99.90;;;;;;5000388;28;89760;-34
2022/08/15 04:52:18;;;;;;;14.27;11.82;;;19.10;99.90;;;;;;5001455;28;90435;-37
2022/08/15 04:54:45;;;;;;;15.93;14.43;;;19.20;99.90;;;;;;5000999;28;89709;-31
2022/08/15 04:57:12;;;;;;;17.67;15.88;;;19.20;99.90;;;;;;5000374;28;88965;-33
2022/08/15 04:59:39;;;;;;;16.60;14.93;;;19.30;99.90;;;;;;5000419;28;89735;-31
2022/08/15 05:02:08;;;;;;;15.88;14.23;;;19.30;99.90;;;;;;5000468;28;90053;-33
2022/08/15 05:04:34;;;;;;;17.30;15.68;;;19.50;99.90;;;;;;5000311;28;89849;-35
2022/08/15 05:07:00;;;;;;;17.63;15.65;;;19.60;99.90;;;;;;4999653;28;89264;-31
2022/08/15 05:09:26;;;;;;;17.35;14.25;;;19.60;99.90;;;;;;4999800;28;89038;-36
2022/08/15 05:11:51;;;;;;;16.83;13.18;;;19.70;99.90;;;;;;4999866;28;90349;-33
2022/08/15 05:14:17;;;;;;;16.38;13.70;;;19.80;99.90;;;;;;4999548;28;89711;-36
2022/08/15 05:16:43;;;;;;;16.25;14.65;;;19.90;99.90;;;;;;5000340;28;89746;-34
2022/08/15 05:19:08;;;;;;;17.92;14.35;;;20.00;99.90;;;;;;4999763;28;88595;-35
2022/08/15 05:21:34;;;;;;;16.63;13.77;;;20.00;99.90;;;;;;5000506;28;90383;-34
2022/08/15 05:24:00;;;;;;;17.55;14.23;;;20.10;99.90;;;;;;4998816;28;92121;-32
2022/08/15 05:26:26;;;;;;;15.57;13.10;;;20.10;99.90;;;;;;4999469;28;91641;-31
2022/08/15 05:28:51;;;;;;;16.17;13.82;;;20.10;99.90;;;;;;4999591;28;89527;-31
2022/08/15 05:31:17;;;;;;;16.58;13.18;;;20.00;99.90;;;;;;4998775;28;90183;-33
2022/08/15 05:33:44;;;;;;;16.77;13.88;;;19.90;99.90;;;;;;5000380;28;88647;-32
2022/08/15 05:36:11;;;;;;;18.13;14.23;;;19.80;99.90;;;;;;4999349;28;89551;-32
2022/08/15 05:38:58;;;;;;;17.98;14.77;;;19.80;99.90;;;;;;4997543;28;89359;-31
2022/08/15 05:41:27;;;;;;;19.58;15.38;;;19.90;99.90;;;;;;4999424;28;90251;-35
2022/08/15 05:44:03;;;;;;;17.55;15.55;;;19.90;99.90;;;;;;4999217;28;90199;-34
2022/08/15 05:47:09;;;;;;;24.00;16.27;;;19.90;99.90;;;;;;4987615;28;89305;-31
2022/08/15 05:49:50;;;;;;;21.95;14.43;;;20.00;99.90;;;;;;4999169;28;89909;-31
2022/08/15 05:52:21;;;;;;;18.17;16.27;;;19.90;99.90;;;;;;4999854;28;90290;-31
2022/08/15 05:55:10;;;;;;;17.30;15.55;;;20.00;99.90;;;;;;4981251;28;89091;-34
2022/08/15 05:57:59;;;;;;;16.48;14.27;;;20.00;99.90;;;;;;4997436;28;90260;-36
2022/08/15 06:00:26;;;;;;;16.42;14.82;;;20.10;99.90;;;;;;4996747;28;89005;-36
2022/08/15 06:02:59;;;;;;;17.50;15.80;;;20.10;99.90;;;;;;4997093;28;90786;-34
2022/08/15 06:05:32;;;;;;;15.82;14.20;;;20.20;99.90;;;;;;4996636;28;89432;-32
2022/08/15 06:08:01;;;;;;;16.40;14.73;;;20.20;99.90;;;;;;4984298;28;90594;-34
2022/08/15 06:10:33;;;;;;;16.60;14.30;;;20.30;99.90;;;;;;4997789;28;88650;-33
2022/08/15 06:13:14;;;;;;;17.17;15.55;;;20.30;99.90;;;;;;4997241;28;88822;-33
2022/08/15 06:16:04;;;;;;;20.52;16.25;;;20.40;99.90;;;;;;4996672;28;90757;-34
2022/08/15 06:18:33;;;;;;;16.38;14.60;;;20.40;99.90;;;;;;4985473;28;91533;-35
2022/08/15 06:21:26;;;;;;;18.27;16.10;;;20.50;99.90;;;;;;4996737;28;89555;-34
2022/08/15 06:24:14;;;;;;;19.83;16.15;;;20.60;99.90;;;;;;4995992;28;88748;-32
2022/08/15 06:26:47;;;;;;;18.40;16.42;;;20.60;99.90;;;;;;4997078;28;90016;-34
2022/08/15 06:29:18;;;;;;;20.55;17.10;;;20.70;99.90;;;;;;4996823;28;89641;-34
2022/08/15 06:31:52;;;;;;;22.95;17.05;;;20.80;99.90;;;;;;4996949;28;89380;-36
2022/08/15 06:34:29;;;;;;;19.23;17.20;;;20.80;99.90;;;;;;4997322;28;90443;-34
2022/08/15 06:37:18;;;;;;;21.58;16.83;;;20.90;99.90;;;;;;4996613;28;89715;-32
2022/08/15 06:40:10;;;;;;;19.60;17.67;;;20.90;99.90;;;;;;4996899;28;89489;-32
2022/08/15 06:42:42;;;;;;;17.67;15.98;;;21.00;99.90;;;;;;4996658;28;90162;-35
2022/08/15 06:45:20;;;;;;;21.63;18.20;;;21.00;99.90;;;;;;4996675;28;89972;-33
2022/08/15 06:47:48;;;;;;;21.45;18.38;;;21.00;99.90;;;;;;4996954;28;90436;-34
2022/08/15 06:50:16;;;;;;;;;;;21.10;99.90;;;;;;4997810;28;89677;-31
2022/08/15 06:52:50;;;;;;;19.10;16.98;;;21.00;99.90;;;;;;4999107;28;88270;-32
2022/08/15 06:55:15;;;;;;;33.47;17.52;;;21.00;99.90;;;;;;4996501;28;90076;-32
2022/08/15 06:57:49;;;;;;;19.65;17.52;;;21.10;99.90;;;;;;4997107;28;90912;-31
2022/08/15 07:00:39;;;;;;;19.10;16.83;;;21.20;99.90;;;;;;4996943;28;91030;-32
2022/08/15 07:03:26;;;;;;;18.70;16.70;;;21.30;99.90;;;;;;4995614;28;89954;-33
2022/08/15 07:05:55;;;;;;;18.65;16.77;;;21.30;99.90;;;;;;4996045;28;90335;-35
2022/08/15 07:08:33;;;;;;;18.33;16.33;;;21.40;99.90;;;;;;4995725;28;90104;-32
2022/08/15 07:11:12;;;;;;;19.77;16.45;;;21.40;99.90;;;;;;4997289;28;90159;-36
2022/08/15 07:13:53;;;;;;;17.55;15.65;;;21.50;99.90;;;;;;4983809;28;87609;-32
2022/08/15 07:16:30;;;;;;;20.38;18.17;;;21.60;99.90;;;;;;4995595;28;90410;-32
2022/08/15 07:18:59;;;;;;;19.35;17.17;;;21.60;99.90;;;;;;4996362;28;89735;-34
2022/08/15 07:21:25;;;;;;;18.98;16.23;;;21.70;99.90;;;;;;4996371;28;90357;-32
2022/08/15 07:24:02;;;;;;;18.92;16.98;;;21.80;99.90;;;;;;4996208;28;89322;-32
2022/08/15 07:26:30;;;;;;;20.33;17.15;;;21.80;99.90;;;;;;4995754;28;90544;-36
2022/08/15 07:29:00;;;;;;;18.17;16.50;;;21.80;99.90;;;;;;4996463;28;89445;-32
2022/08/15 07:31:36;;;;;;;17.15;15.65;;;22.10;99.90;;;;;;4995501;28;89634;-36
2022/08/15 07:34:16;;;;;;;16.98;15.18;;;22.20;99.90;;;;;;4996551;28;90321;-35
2022/08/15 07:37:01;;;;;;;17.45;15.65;;;22.30;99.90;;;;;;4999733;28;89960;-34
2022/08/15 07:39:28;;;;;;;17.27;15.48;;;22.40;99.90;;;;;;4999372;28;89598;-31
2022/08/15 07:41:54;;;;;;;23.00;16.67;;;22.40;99.90;;;;;;4999359;28;89738;-35
2022/08/15 07:44:26;;;;;;;17.15;15.35;;;22.50;99.90;;;;;;4999180;28;88177;-32
2022/08/15 07:47:01;;;;;;;17.70;15.00;;;22.50;99.90;;;;;;4999151;28;90276;-30
2022/08/15 07:49:27;;;;;;;18.45;16.48;;;22.60;99.90;;;;;;5000000;28;89542;-33
2022/08/15 07:52:13;;;;;;;18.73;16.73;;;22.70;99.90;;;;;;4998848;28;89871;-34
2022/08/15 07:54:41;;;;;;;18.00;16.15;;;22.80;99.90;;;;;;4999594;28;89953;-36
2022/08/15 07:57:25;;;;;;;17.52;15.48;;;22.90;99.90;;;;;;4999254;28;90337;-33
2022/08/15 08:00:13;;;;;;;18.92;15.05;;;23.00;99.90;;;;;;4999608;28;89470;-33
2022/08/15 08:02:54;;;;;;;22.25;13.40;;;23.10;99.90;;;;;;4999167;28;90484;-35
2022/08/15 08:05:25;;;;;;;17.15;15.45;;;23.30;99.90;;;;;;4999462;28;89568;-33
2022/08/15 08:07:53;;;;;;;17.35;15.60;;;23.30;99.90;;;;;;4999471;28;88742;-33
2022/08/15 08:10:27;;;;;;;16.80;14.68;;;23.40;99.90;;;;;;4999687;28;89209;-32
2022/08/15 08:13:05;;;;;;;15.70;14.07;;;23.40;99.90;;;;;;4998867;28;89756;-32
2022/08/15 08:15:44;;;;;;;13.88;12.52;;;23.60;99.90;;;;;;4999100;28;89357;-32
2022/08/15 08:18:26;;;;;;;15.85;12.52;;;23.70;99.90;;;;;;4999068;28;90219;-33
2022/08/15 08:21:11;;;;;;;14.02;12.52;;;23.80;99.90;;;;;;4998531;28;89719;-32
2022/08/15 08:23:49;;;;;;;12.05;10.80;;;23.90;99.90;;;;;;4999203;28;90103;-35
2022/08/15 08:26:30;;;;;;;14.70;11.02;;;24.10;99.90;;;;;;4998636;28;89667;-31
2022/08/15 08:29:06;;;;;;;12.95;10.57;;;24.30;99.90;;;;;;4985839;28;90047;-36
2022/08/15 08:32:01;;;;;;;13.60;10.50;;;24.60;99.90;;;;;;4998414;28;90703;-33
2022/08/15 08:34:41;;;;;;;11.90;10.80;;;25.00;99.90;;;;;;4998612;28;90023;-32
2022/08/15 08:37:28;;;;;;;11.05;9.90;;;25.40;99.90;;;;;;4999426;28;88991;-32
2022/08/15 08:43:10;;;;;;;10.38;9.40;;;26.10;99.90;;;;;;4998847;28;91000;-34
2022/08/15 08:46:20;;;;;;;10.38;9.48;;;26.20;99.90;;;;;;4999040;28;91167;-33
2022/08/15 08:49:13;;;;;;;9.73;9.02;;;26.30;99.90;;;;;;4999009;28;88577;-33
2022/08/15 08:51:58;;;;;;;10.95;8.82;;;26.30;99.90;;;;;;4987863;28;90207;-32
2022/08/15 08:54:41;;;;;;;10.75;9.20;;;26.10;99.90;;;;;;4998067;28;90520;-33
2022/08/15 08:57:15;;;;;;;11.65;8.20;;;26.10;99.90;;;;;;4999537;28;90600;-33
2022/08/15 09:00:01;;;;;;;10.93;9.82;;;26.40;99.90;;;;;;4999090;28;89142;-34
2022/08/15 09:02:34;;;;;;;10.73;9.68;;;26.70;99.90;;;;;;4998857;28;90230;-35
2022/08/15 09:05:07;;;;;;;9.52;8.60;;;26.90;99.90;;;;;;4999245;28;91320;-33
2022/08/15 09:07:37;;;;;;;9.10;8.20;;;27.10;99.90;;;;;;4998594;28;89715;-33
2022/08/15 09:10:07;;;;;;;9.35;8.27;;;27.40;99.90;;;;;;4998853;28;89164;-35
2022/08/15 09:15:27;;;;;;;10.32;8.70;;;27.70;99.90;;;;;;4986232;28;89738;-34
2022/08/15 09:18:00;;;;;;;14.63;9.65;;;27.50;99.90;;;;;;4998730;28;89187;-34
2022/08/15 09:20:38;;;;;;;10.50;9.32;;;27.40;99.90;;;;;;4997759;28;89519;-31
2022/08/15 09:23:08;;;;;;;10.57;9.55;;;27.30;99.90;;;;;;4997784;28;90691;-33
2022/08/15 09:25:37;;;;;;;11.10;9.95;;;27.30;99.90;;;;;;4997982;28;90108;-33
2022/08/15 09:28:30;;;;;;;9.07;8.20;;;27.20;99.90;;;;;;4998000;28;91010;-33
2022/08/15 09:31:02;;;;;;;12.82;9.77;;;27.30;99.90;;;;;;4998725;28;88975;-35
2022/08/15 09:33:36;;;;;;;11.15;10.10;;;27.30;99.90;;;;;;4997672;28;90258;-32
2022/08/15 09:36:07;;;;;;;12.57;9.85;;;27.40;99.90;;;;;;4998234;28;89912;-32
2022/08/15 09:39:21;;;;;;;10.65;9.57;;;27.60;99.90;;;;;;4998458;28;89528;-33
2022/08/15 09:41:55;;;;;;;11.25;9.70;;;27.80;99.90;;;;;;4930163;28;89227;-34
2022/08/15 09:44:57;;;;;;;52.45;13.05;;;28.20;99.90;;;;;;4989678;28;90266;-33
2022/08/15 09:48:00;;;;;;;10.23;8.82;;;28.50;99.90;;;;;;4994990;28;90981;-32
2022/08/15 09:50:44;;;;;;;10.20;9.30;;;28.80;99.90;;;;;;4991284;28;90452;-36
2022/08/15 09:53:17;;;;;;;13.70;10.30;;;29.10;98.10;;;;;;4998237;28;88296;-34
2022/08/15 09:55:46;;;;;;;9.93;8.90;;;29.10;95.30;;;;;;4997078;28;90180;-32
2022/08/15 09:58:29;;;;;;;10.43;8.93;;;29.00;96.10;;;;;;4997606;28;89985;-36
2022/08/15 10:01:14;;;;;;;10.32;8.88;;;28.80;97.20;;;;;;4997951;28;89542;-34
2022/08/15 10:03:51;;;;;;;11.27;10.13;;;28.70;97.90;;;;;;4997388;28;88552;-33
2022/08/15 10:06:19;;;;;;;13.07;10.70;;;28.50;99.60;;;;;;4997065;28;90269;-34
2022/08/15 10:08:53;;;;;;;10.50;9.32;;;28.30;98.70;;;;;;4996793;28;89858;-32
2022/08/15 10:11:31;;;;;;;14.68;12.38;;;28.30;99.40;;;;;;4998076;28;90022;-36
2022/08/15 10:14:06;;;;;;;15.65;12.20;;;28.10;99.90;;;;;;4996815;28;89684;-35
2022/08/15 10:16:41;;;;;;;13.63;12.23;;;28.00;99.90;;;;;;4994863;28;91827;-32
2022/08/15 10:19:29;;;;;;;15.57;13.63;;;27.80;99.90;;;;;;4996568;28;89124;-35
2022/08/15 10:21:58;;;;;;;15.50;12.98;;;27.70;99.90;;;;;;4996663;28;90343;-36
2022/08/15 10:24:36;;;;;;;15.45;13.95;;;27.60;99.90;;;;;;4997286;28;88577;-36
2022/08/15 10:27:20;;;;;;;18.45;16.45;;;27.50;99.90;;;;;;4996574;28;90201;-35
2022/08/15 10:29:49;;;;;;;18.38;16.45;;;27.40;99.90;;;;;;4996501;28;89583;-34
2022/08/15 10:32:23;;;;;;;18.08;14.98;;;27.30;99.90;;;;;;4996453;28;90121;-34
2022/08/15 10:35:04;;;;;;;15.93;14.32;;;27.30;99.90;;;;;;4996890;28;88562;-31
2022/08/15 10:37:53;;;;;;;17.38;15.65;;;27.20;99.90;;;;;;4995760;28;90156;-34
2022/08/15 10:40:38;;;;;;;18.00;16.27;;;27.20;99.90;;;;;;4983916;28;90289;-33
2022/08/15 10:43:23;;;;;;;15.32;13.85;;;27.10;99.90;;;;;;4996985;28;90086;-34
2022/08/15 10:45:56;;;;;;;17.70;15.88;;;27.00;99.90;;;;;;4996627;28;90171;-32
2022/08/15 10:49:02;;;;;;;17.73;15.40;;;27.00;99.90;;;;;;4995957;28;90150;-36
2022/08/15 10:51:37;;;;;;;18.17;16.40;;;27.00;99.90;;;;;;4995693;28;89952;-33
2022/08/15 10:54:33;;;;;;;17.10;15.30;;;27.00;99.90;;;;;;4996170;28;89487;-36
2022/08/15 10:56:58;;;;;;;19.63;16.55;;;27.00;99.90;;;;;;4991349;28;89560;-36
2022/08/15 10:59:36;;;;;;;17.17;15.48;;;27.00;99.90;;;;;;4996444;28;89205;-33
2022/08/15 11:02:14;;;;;;;18.02;16.33;;;26.90;99.90;;;;;;4996135;28;89628;-35
2022/08/15 11:04:42;;;;;;;18.40;15.18;;;26.90;99.90;;;;;;4997446;28;90240;-32
2022/08/15 11:07:18;;;;;;;20.90;16.75;;;26.80;99.90;;;;;;4998201;28;89245;-34
2022/08/15 11:09:52;;;;;;;17.58;15.23;;;26.90;99.90;;;;;;4997914;28;90413;-36
2022/08/15 11:12:20;;;;;;;16.65;13.10;;;26.80;99.90;;;;;;4998019;28;89683;-34
2022/08/15 11:14:52;;;;;;;17.90;15.48;;;26.80;99.90;;;;;;4998547;28;89776;-32
2022/08/15 11:17:24;;;;;;;25.45;16.15;;;26.70;99.90;;;;;;4998357;28;89193;-36
2022/08/15 11:19:52;;;;;;;17.02;15.30;;;26.60;99.90;;;;;;4998456;28;89528;-36
2022/08/15 11:22:36;;;;;;;19.75;17.38;;;26.50;99.90;;;;;;4998388;28;89526;-35
2022/08/15 11:25:17;;;;;;;17.98;16.17;;;26.50;99.90;;;;;;4994944;28;89654;-35
2022/08/15 11:27:46;;;;;;;23.95;15.77;;;26.40;99.90;;;;;;4997900;28;88846;-35
2022/08/15 11:30:22;;;;;;;17.35;15.60;;;26.30;99.90;;;;;;4997865;28;90625;-35
2022/08/15 11:32:48;;;;;;;20.83;18.83;;;26.50;99.90;;;;;;4998163;28;90812;-32
2022/08/15 11:35:25;;;;;;;18.83;17.02;;;26.50;99.90;;;;;;4998080;28;90936;-34
2022/08/15 11:37:55;;;;;;;21.92;18.42;;;26.60;99.90;;;;;;4997999;28;88572;-32
2022/08/15 11:40:21;;;;;;;20.48;17.63;;;26.70;99.90;;;;;;4997583;28;92360;-35
2022/08/15 11:42:47;;;;;;;29.40;21.38;;;26.80;99.90;;;;;;4997706;28;89935;-33
2022/08/15 11:45:18;;;;;;;20.90;18.90;;;26.90;99.90;;;;;;4986750;28;90022;-35
2022/08/15 11:47:49;;;;;;;21.75;19.58;;;27.00;99.90;;;;;;4996721;28;89836;-31
2022/08/15 11:50:34;;;;;;;20.40;18.25;;;27.10;99.90;;;;;;4998929;28;90470;-32
2022/08/15 11:53:05;;;;;;;20.10;17.90;;;27.20;99.90;;;;;;4998384;28;89432;-33
2022/08/15 11:55:31;;;;;;;21.17;18.48;;;27.20;99.90;;;;;;4997987;28;89397;-35
2022/08/15 11:58:05;;;;;;;19.02;17.13;;;27.20;99.90;;;;;;4997589;28;88811;-34
2022/08/15 12:00:36;;;;;;;18.50;16.77;;;27.20;99.90;;;;;;4998606;28;88916;-34
2022/08/15 12:03:18;;;;;;;21.15;19.02;;;27.20;99.90;;;;;;4997236;28;89513;-34
2022/08/15 12:05:43;;;;;;;26.40;18.48;;;27.30;99.90;;;;;;4997499;28;90210;-33
2022/08/15 12:08:09;;;;;;;20.27;18.15;;;27.30;99.90;;;;;;4997862;28;89201;-36
2022/08/15 12:10:39;;;;;;;22.98;20.58;;;27.30;99.90;;;;;;4997664;28;91513;-33
2022/08/15 12:13:06;;;;;;;24.95;21.40;;;27.40;99.90;;;;;;4997674;28;89561;-35
2022/08/15 12:15:31;;;;;;;22.13;18.48;;;27.40;99.90;;;;;;4997384;28;89654;-35
2022/08/15 12:18:04;;;;;;;22.27;20.08;;;27.40;99.90;;;;;;4997620;28;89248;-33
2022/08/15 12:20:54;;;;;;;20.73;18.55;;;27.40;99.90;;;;;;4997197;28;90242;-33
2022/08/15 12:23:26;;;;;;;39.55;23.50;;;27.50;99.90;;;;;;5034950;22;90065;-32
2022/08/15 12:25:58;;;;;;;22.88;20.50;;;27.70;99.90;;;;;;5000680;28;91040;-34
2022/08/15 12:28:25;;;;;;;25.48;18.67;;;27.90;99.90;;;;;;5001260;28;89980;-34
2022/08/15 12:31:11;;;;;;;46.40;21.85;;;27.90;99.90;;;;;;5001056;28;91165;-34
2022/08/15 12:33:38;;;;;;;21.98;19.88;;;27.90;99.90;;;;;;4972226;28;89657;-35
2022/08/15 12:36:03;;;;;;;22.63;18.40;;;28.10;99.90;;;;;;5001708;28;89497;-35
2022/08/15 12:38:31;;;;;;;21.38;19.17;;;28.10;99.90;;;;;;5000362;28;90055;-35
2022/08/15 12:40:57;;;;;;;;;;;28.20;99.90;;;;;;5001128;28;90789;-32
2022/08/15 12:43:22;;;;;;;19.85;17.75;;;28.10;99.90;;;;;;5002745;28;89766;-33
2022/08/15 12:45:48;;;;;;;21.08;18.35;;;28.10;99.90;;;;;;5000873;28;91274;-34
2022/08/15 12:48:26;;;;;;;25.42;20.17;;;28.00;99.90;;;;;;5000114;28;89699;-35
2022/08/15 12:50:53;;;;;;;18.77;16.88;;;28.00;99.90;;;;;;5000360;28;90173;-36
2022/08/15 12:53:18;;;;;;;19.58;17.15;;;28.10;99.90;;;;;;5000161;28;89105;-32
2022/08/15 12:55:47;;;;;;;22.05;16.67;;;28.10;99.90;;;;;;5000059;28;89853;-33
2022/08/15 12:58:14;;;;;;;16.85;13.68;;;28.00;99.90;;;;;;5000655;28;89562;-31
2022/08/15 13:00:41;;;;;;;20.17;17.95;;;27.90;99.90;;;;;;5001345;28;89765;-33
2022/08/15 13:03:17;;;;;;;18.67;16.52;;;27.90;99.90;;;;;;4999725;28;91481;-35
2022/08/15 13:05:44;;;;;;;19.10;17.23;;;27.90;99.90;;;;;;5000325;28;89211;-33
2022/08/15 13:08:12;;;;;;;;;;;27.90;99.90;;;;;;5001290;28;88449;-36